Pagina principale
METAR-TAF:

METAR-TAF

Aeroporti :

Münster-Osnabrück, Germania

latitudine: 52-08N, longitudine: 007-42E, altezza: 48 m

Osservazione

Il bollettino è stato emesso 15 minuti fa, alle 15:20 UTC
Vento 7 kt da est, variando fra nord-est e sud
Temperature 31°C
Umidità 40%
Pressione 1018 hPa
Visibilità 10 km o più
nessuna nube inferiore a 1500 m e nessun cumulonembo

METAR: EDDG 241520Z 09007KT 050V170 CAVOK 31/16 Q1018 NOSIG

Ora: 17:35 (15:35 UTC)

Previsione

Il bollettino è stato emesso 4 ore e 35 minuti fa, alle 11:00 UTC
Previsione valida dal 24 alle 12 UTC al 25 alle 12 UTC
Vento 7 kt da est/sud-est
Visibilità 10 km o più
nessuna nube inferiore a 1500 m e nessun cumulonembo

TAF: EDDG 241100Z 2412/2512 11007KT CAVOK

Osservazioni e previsioni meteorologiche di più di 4000 aeroporti (messaggi METAR e TAF).

Le stazioni disponibili sono rappresentate dai dischi gialli e rossi sulla carta.

Puntare il mouse per vedere il nome della stazione.

Clicca sopra per visualizzare le osservazioni e previsioni meteorologiche.

Per cambiare la mappa : fare clic sui pulsanti verdi con una croce nera per ingrandire, il pulsante verde con un trattino per diminuire, o sulla freccia verde per le mappe adiacenti.


METAR-TAF: